Time;durP1;ratioP1;P1;durP2;ratioP2;P2;SDS_P1;SDS_P2;PMS_P1;PMS_P2;Temp;Humidity;BMP_temperature;BMP_pressure;BME280_temperature;BME280_humidity;BME280_pressure;Samples;Min_cycle;Max_cycle;Signal;HPM_P1;HPM_P2
2021/04/08 00:01:28;;;;;;;7.38;2.20;;;1.00;95.50;;;;;;4939031;29;20069;-84
2021/04/08 00:03:54;;;;;;;12.80;3.20;;;1.00;95.50;;;;;;4940255;28;20092;-84
2021/04/08 00:06:19;;;;;;;7.18;3.55;;;1.00;95.50;;;;;;4962013;28;20027;-84
2021/04/08 00:08:45;;;;;;;12.68;3.72;;;1.00;95.60;;;;;;4951271;29;20042;-84
2021/04/08 00:11:10;;;;;;;13.30;4.38;;;0.90;95.50;;;;;;4948630;29;20062;-85
2021/04/08 00:13:36;;;;;;;16.33;4.00;;;0.90;95.60;;;;;;4950039;29;20066;-85
2021/04/08 00:16:03;;;;;;;11.45;5.25;;;1.00;95.80;;;;;;4949839;29;20030;-85
2021/04/08 00:18:29;;;;;;;17.60;5.47;;;1.00;95.80;;;;;;4933020;28;20035;-85
2021/04/08 00:20:54;;;;;;;16.65;5.75;;;1.00;95.80;;;;;;4968748;28;20364;-85
2021/04/08 00:23:20;;;;;;;17.25;7.07;;;1.00;96.00;;;;;;4941833;29;20118;-85
2021/04/08 00:25:46;;;;;;;18.77;5.88;;;1.00;95.60;;;;;;4946210;28;20073;-85
2021/04/08 00:28:11;;;;;;;16.15;6.25;;;1.00;95.70;;;;;;4952479;28;20494;-85
2021/04/08 00:30:43;;;;;;;21.85;6.15;;;1.00;95.70;;;;;;4952562;28;20039;-85
2021/04/08 00:33:12;;;;;;;10.27;4.57;;;1.00;95.70;;;;;;4948316;28;20578;-85
2021/04/08 00:35:38;;;;;;;19.23;6.07;;;1.00;95.80;;;;;;4946888;29;20461;-85
2021/04/08 00:38:04;;;;;;;11.73;4.85;;;1.00;95.80;;;;;;4950241;28;20126;-86
2021/04/08 00:40:30;;;;;;;18.65;5.60;;;1.00;95.80;;;;;;4963938;28;20024;-85
2021/04/08 00:42:55;;;;;;;17.58;5.43;;;1.00;95.80;;;;;;4951321;29;20024;-85
2021/04/08 00:45:21;;;;;;;18.50;4.72;;;1.00;95.90;;;;;;4942758;28;20032;-86
2021/04/08 00:47:47;;;;;;;11.57;4.65;;;1.00;95.90;;;;;;4945654;29;20035;-85
2021/04/08 00:50:14;;;;;;;15.45;4.40;;;1.10;96.00;;;;;;4935699;29;20060;-85
2021/04/08 00:52:42;;;;;;;10.65;3.38;;;1.10;96.00;;;;;;4939004;29;20036;-85
2021/04/08 00:55:08;;;;;;;9.55;2.83;;;1.10;95.90;;;;;;4952268;28;20027;-85
2021/04/08 00:57:34;;;;;;;15.30;2.63;;;1.20;96.00;;;;;;4936554;28;20063;-85
2021/04/08 01:00:02;;;;;;;10.75;2.10;;;1.30;96.00;;;;;;4953507;29;20051;-85
2021/04/08 01:02:28;;;;;;;11.63;2.30;;;1.30;96.00;;;;;;4951619;28;20031;-85
2021/04/08 01:04:54;;;;;;;6.90;1.00;;;1.40;96.00;;;;;;4939340;29;20030;-86
2021/04/08 01:07:20;;;;;;;7.63;1.00;;;1.40;95.90;;;;;;4949204;29;20054;-85
2021/04/08 01:09:45;;;;;;;7.32;1.38;;;1.50;95.90;;;;;;4950291;29;20023;-86
2021/04/08 01:12:11;;;;;;;5.22;1.15;;;1.50;95.80;;;;;;4955469;29;20081;-86
2021/04/08 01:14:36;;;;;;;6.15;0.88;;;1.60;95.80;;;;;;4942554;29;20502;-86
2021/04/08 01:17:14;;;;;;;4.75;0.93;;;1.60;95.80;;;;;;4945979;29;20059;-86
2021/04/08 01:20:07;;;;;;;8.27;1.33;;;1.60;95.70;;;;;;4967943;28;20038;-86
2021/04/08 01:22:57;;;;;;;8.50;0.98;;;1.60;95.70;;;;;;4936414;28;20507;-85
2021/04/08 01:26:07;;;;;;;8.48;0.90;;;1.60;95.70;;;;;;4951150;28;20031;-85
2021/04/08 01:28:36;;;;;;;3.58;0.77;;;1.70;95.70;;;;;;4953423;29;20031;-85
2021/04/08 01:31:05;;;;;;;7.28;1.15;;;1.70;95.70;;;;;;4952646;28;20404;-85
2021/04/08 01:33:35;;;;;;;6.07;0.70;;;1.70;95.70;;;;;;4952867;29;20048;-85
2021/04/08 01:36:07;;;;;;;6.72;1.35;;;1.80;95.60;;;;;;4954233;29;20069;-85
2021/04/08 01:38:39;;;;;;;11.00;2.17;;;1.80;95.60;;;;;;4949845;29;20070;-85
2021/04/08 01:41:06;;;;;;;7.45;0.77;;;1.90;95.90;;;;;;4943737;29;20484;-85
2021/04/08 01:43:36;;;;;;;8.85;0.88;;;1.90;95.50;;;;;;4945609;29;20043;-85
2021/04/08 01:46:03;;;;;;;10.77;0.80;;;1.90;95.50;;;;;;4954248;28;20027;-85
2021/04/08 01:48:31;;;;;;;5.82;0.93;;;1.90;95.40;;;;;;4954159;28;20031;-85
2021/04/08 01:50:59;;;;;;;9.55;0.80;;;1.90;95.40;;;;;;4950365;28;20038;-85
2021/04/08 01:53:26;;;;;;;8.95;0.80;;;1.90;95.40;;;;;;4953498;29;20031;-84
2021/04/08 01:55:56;;;;;;;5.45;0.75;;;1.90;95.30;;;;;;4939577;29;20065;-85
2021/04/08 01:58:23;;;;;;;5.25;0.63;;;1.80;95.50;;;;;;4947040;28;20051;-86
2021/04/08 02:00:50;;;;;;;6.22;0.70;;;1.80;95.30;;;;;;4935711;29;20028;-85
2021/04/08 02:03:16;;;;;;;7.55;0.63;;;1.80;95.40;;;;;;4936493;29;20032;-85
2021/04/08 02:05:42;;;;;;;7.43;0.82;;;1.70;95.30;;;;;;4952350;28;20027;-85
2021/04/08 02:08:08;;;;;;;5.75;0.50;;;1.70;95.30;;;;;;4953837;29;20027;-85
2021/04/08 02:10:35;;;;;;;10.15;0.63;;;1.70;95.30;;;;;;4949878;29;20545;-85
2021/04/08 02:13:02;;;;;;;6.97;0.40;;;1.70;95.30;;;;;;4952194;29;20047;-85
2021/04/08 02:15:29;;;;;;;7.18;1.02;;;1.70;95.40;;;;;;4951826;28;20556;-85
2021/04/08 02:17:57;;;;;;;7.95;1.02;;;1.60;95.30;;;;;;4953966;29;20086;-85
2021/04/08 02:20:29;;;;;;;3.80;0.40;;;1.70;95.30;;;;;;4941296;28;20039;-85
2021/04/08 02:22:57;;;;;;;7.38;0.40;;;1.70;95.30;;;;;;4946580;28;20034;-85
2021/04/08 02:25:26;;;;;;;8.32;0.98;;;1.60;95.30;;;;;;4949438;28;20024;-86
2021/04/08 02:27:52;;;;;;;3.72;0.60;;;1.70;95.30;;;;;;4946703;28;20097;-86
2021/04/08 02:30:21;;;;;;;7.63;0.70;;;1.70;95.30;;;;;;4948656;28;20083;-86
2021/04/08 02:32:47;;;;;;;2.85;0.40;;;1.70;95.30;;;;;;4939541;28;20051;-85
2021/04/08 02:35:15;;;;;;;4.78;0.73;;;1.70;95.30;;;;;;4945178;28;20123;-86
2021/04/08 02:37:42;;;;;;;9.77;0.88;;;1.70;95.30;;;;;;4947907;29;20067;-85
2021/04/08 02:40:10;;;;;;;7.90;0.80;;;1.70;95.30;;;;;;4972642;28;20057;-85
2021/04/08 02:42:35;;;;;;;6.25;0.90;;;1.70;95.30;;;;;;4944169;28;20039;-85
2021/04/08 02:45:02;;;;;;;8.15;0.77;;;1.70;95.30;;;;;;4952466;29;20568;-85
2021/04/08 02:47:28;;;;;;;5.25;0.77;;;1.70;95.30;;;;;;4952410;29;20498;-85
2021/04/08 02:49:54;;;;;;;5.10;0.60;;;1.80;95.30;;;;;;4950121;29;20038;-85
2021/04/08 02:52:24;;;;;;;6.05;0.70;;;1.80;95.30;;;;;;4949792;28;20035;-85
2021/04/08 02:54:54;;;;;;;8.40;0.90;;;1.80;95.30;;;;;;4952303;28;20051;-85
2021/04/08 02:57:37;;;;;;;6.32;0.52;;;1.90;95.30;;;;;;4952833;29;20057;-85
2021/04/08 03:00:09;;;;;;;7.30;1.15;;;1.90;95.20;;;;;;4936509;28;20122;-85
2021/04/08 03:02:42;;;;;;;4.10;0.57;;;1.90;95.20;;;;;;4935482;28;20483;-85
2021/04/08 03:05:09;;;;;;;8.20;1.15;;;1.90;95.20;;;;;;4946162;28;20153;-85
2021/04/08 03:07:45;;;;;;;3.20;0.60;;;1.90;95.20;;;;;;4949302;28;20126;-85
2021/04/08 03:10:13;;;;;;;6.97;0.70;;;1.90;95.10;;;;;;4938870;29;20042;-85
2021/04/08 03:12:42;;;;;;;9.15;0.80;;;1.90;95.10;;;;;;4942669;29;20043;-85
2021/04/08 03:15:09;;;;;;;4.97;0.77;;;1.90;95.10;;;;;;4933444;28;20027;-85
2021/04/08 03:17:39;;;;;;;9.77;0.70;;;1.90;95.10;;;;;;4952467;29;20032;-85
2021/04/08 03:20:07;;;;;;;5.70;0.90;;;1.80;95.00;;;;;;4965170;28;20032;-85
2021/04/08 03:22:35;;;;;;;6.38;0.65;;;1.80;95.10;;;;;;4938787;29;20059;-86
2021/04/08 03:25:02;;;;;;;12.07;0.82;;;1.70;95.20;;;;;;4951681;29;20055;-85
2021/04/08 03:27:29;;;;;;;10.82;1.05;;;1.70;95.20;;;;;;4941937;28;20039;-85
2021/04/08 03:29:56;;;;;;;7.05;0.80;;;1.80;95.30;;;;;;4947651;29;20024;-85
2021/04/08 03:32:22;;;;;;;6.35;0.73;;;1.80;95.30;;;;;;4943830;28;20098;-85
2021/04/08 03:34:49;;;;;;;6.28;0.70;;;1.80;95.30;;;;;;4952103;28;20453;-85
2021/04/08 03:37:15;;;;;;;5.65;0.85;;;1.80;95.30;;;;;;4951484;28;20139;-85
2021/04/08 03:39:42;;;;;;;7.38;0.80;;;1.90;95.30;;;;;;4946727;28;20036;-85
2021/04/08 03:42:11;;;;;;;9.32;0.85;;;1.90;95.30;;;;;;4939058;28;20059;-85
2021/04/08 03:44:37;;;;;;;4.00;0.93;;;1.90;95.30;;;;;;4979313;28;20026;-85
2021/04/08 03:47:05;;;;;;;6.68;0.85;;;1.90;95.20;;;;;;4933459;28;20031;-85
2021/04/08 03:49:31;;;;;;;4.30;0.50;;;2.00;95.20;;;;;;4939674;28;20019;-85
2021/04/08 03:51:58;;;;;;;7.00;0.60;;;2.00;95.20;;;;;;4950063;29;20031;-86
2021/04/08 03:54:24;;;;;;;5.28;0.60;;;2.00;95.20;;;;;;4946243;28;20390;-85
2021/04/08 03:56:52;;;;;;;4.97;0.57;;;2.00;95.10;;;;;;4952333;28;20042;-85
2021/04/08 03:59:18;;;;;;;13.05;1.00;;;2.00;95.10;;;;;;4949630;28;20043;-86
2021/04/08 04:01:48;;;;;;;5.40;0.77;;;2.00;95.10;;;;;;4964918;29;20083;-86
2021/04/08 04:04:14;;;;;;;7.90;0.68;;;2.00;95.10;;;;;;4966694;28;20060;-85
2021/04/08 04:06:43;;;;;;;5.95;1.27;;;2.00;95.10;;;;;;4937883;29;20031;-85
2021/04/08 04:09:13;;;;;;;7.28;1.23;;;2.00;95.10;;;;;;4942374;29;20456;-85
2021/04/08 04:11:47;;;;;;;9.60;1.20;;;2.10;95.10;;;;;;4946954;29;20024;-84
2021/04/08 04:14:15;;;;;;;8.73;1.33;;;2.10;95.10;;;;;;4945591;28;20032;-84
2021/04/08 04:16:47;;;;;;;5.25;1.60;;;2.10;95.10;;;;;;4938361;29;20031;-85
2021/04/08 04:19:13;;;;;;;8.35;1.33;;;2.10;95.10;;;;;;4951395;29;20036;-85
2021/04/08 04:21:39;;;;;;;6.07;1.58;;;2.10;95.10;;;;;;4951995;29;20073;-84
2021/04/08 04:24:06;;;;;;;7.68;1.45;;;2.10;95.10;;;;;;4941151;28;20027;-85
2021/04/08 04:26:32;;;;;;;8.48;1.70;;;2.10;95.10;;;;;;4939345;28;20486;-85
2021/04/08 04:28:57;;;;;;;13.52;2.10;;;2.10;95.10;;;;;;4936997;28;20065;-85
2021/04/08 04:31:23;;;;;;;10.43;2.22;;;2.10;95.10;;;;;;4947411;28;20033;-84
2021/04/08 04:33:49;;;;;;;17.38;3.17;;;2.10;95.10;;;;;;4944144;29;20142;-85
2021/04/08 04:36:17;;;;;;;9.07;2.72;;;2.10;95.10;;;;;;4953412;29;20467;-85
2021/04/08 04:38:43;;;;;;;10.75;2.72;;;2.10;95.10;;;;;;4945872;28;20038;-84
2021/04/08 04:41:08;;;;;;;13.27;2.63;;;2.20;95.10;;;;;;4952696;29;20039;-85
2021/04/08 04:43:34;;;;;;;9.13;3.13;;;2.10;95.10;;;;;;4953292;29;20020;-85
2021/04/08 04:45:59;;;;;;;10.75;3.00;;;2.20;95.10;;;;;;4951352;28;20020;-85
2021/04/08 04:48:25;;;;;;;10.88;3.65;;;2.20;95.10;;;;;;4939061;28;20390;-84
2021/04/08 04:50:52;;;;;;;12.00;3.20;;;2.10;95.10;;;;;;4946155;29;20054;-85
2021/04/08 04:53:17;;;;;;;11.23;3.33;;;2.20;95.10;;;;;;4954190;28;20465;-85
2021/04/08 04:55:43;;;;;;;10.88;3.28;;;2.20;95.10;;;;;;4957435;29;20117;-85
2021/04/08 04:58:08;;;;;;;11.80;3.10;;;2.20;95.10;;;;;;4949218;29;20050;-85
2021/04/08 05:00:34;;;;;;;17.35;3.63;;;2.20;95.10;;;;;;4952716;29;20094;-85
2021/04/08 05:02:59;;;;;;;9.98;3.00;;;2.20;95.10;;;;;;4950814;29;20038;-84
2021/04/08 05:05:25;;;;;;;7.88;3.08;;;2.20;95.00;;;;;;4942413;29;20032;-83
2021/04/08 05:07:53;;;;;;;15.23;3.88;;;2.20;95.00;;;;;;4939144;29;20411;-85
2021/04/08 05:10:19;;;;;;;16.17;3.95;;;2.20;95.00;;;;;;4965011;28;20082;-85
2021/04/08 05:12:44;;;;;;;17.90;3.65;;;2.20;95.00;;;;;;4954831;28;20023;-85
2021/04/08 05:15:10;;;;;;;9.73;3.45;;;2.20;95.00;;;;;;4946516;29;20043;-84
2021/04/08 05:17:36;;;;;;;8.43;3.50;;;2.10;94.90;;;;;;4950631;29;20089;-85
2021/04/08 05:20:02;;;;;;;7.70;2.70;;;2.10;94.90;;;;;;4939255;28;20039;-85
2021/04/08 05:22:28;;;;;;;10.48;3.35;;;2.00;94.90;;;;;;4949730;28;20031;-84
2021/04/08 05:24:54;;;;;;;10.38;2.60;;;2.00;94.90;;;;;;4948417;29;20031;-85
2021/04/08 05:27:19;;;;;;;14.57;3.38;;;1.90;95.00;;;;;;4942244;28;20031;-85
2021/04/08 05:29:45;;;;;;;9.63;3.00;;;1.90;95.00;;;;;;4945274;28;20031;-84
2021/04/08 05:32:10;;;;;;;12.82;3.55;;;1.90;95.10;;;;;;4941826;28;20047;-85
2021/04/08 05:34:39;;;;;;;11.00;3.28;;;1.90;95.10;;;;;;4942481;28;20039;-84
2021/04/08 05:37:05;;;;;;;11.45;4.00;;;1.90;95.10;;;;;;4963614;28;20055;-85
2021/04/08 05:39:30;;;;;;;8.48;3.47;;;2.00;95.10;;;;;;4952618;28;20046;-84
2021/04/08 05:41:57;;;;;;;6.70;2.75;;;2.00;95.10;;;;;;4951638;29;20032;-85
2021/04/08 05:44:22;;;;;;;16.40;3.60;;;2.00;95.10;;;;;;4943438;29;20036;-85
2021/04/08 05:46:48;;;;;;;9.02;3.50;;;2.10;95.10;;;;;;4954870;29;20387;-85
2021/04/08 05:49:13;;;;;;;15.65;3.05;;;2.10;95.00;;;;;;4959899;28;20031;-85
2021/04/08 05:51:39;;;;;;;10.40;3.25;;;2.20;95.00;;;;;;4956405;29;20114;-85
2021/04/08 05:54:07;;;;;;;11.73;3.20;;;2.30;94.90;;;;;;4938409;28;20085;-85
2021/04/08 05:56:32;;;;;;;14.13;3.90;;;2.30;94.90;;;;;;4944296;29;20027;-85
2021/04/08 05:58:58;;;;;;;10.77;3.05;;;2.30;94.80;;;;;;4943274;29;21820;-85
2021/04/08 06:01:24;;;;;;;7.82;3.05;;;2.40;94.70;;;;;;4938219;28;20028;-85
2021/04/08 06:03:49;;;;;;;12.40;3.10;;;2.40;94.70;;;;;;4939374;29;20487;-85
2021/04/08 06:06:15;;;;;;;9.50;3.35;;;2.40;94.60;;;;;;4943477;28;20127;-85
2021/04/08 06:08:41;;;;;;;8.90;2.83;;;2.50;94.50;;;;;;4943627;28;20142;-85
2021/04/08 06:11:06;;;;;;;9.65;3.15;;;2.50;94.50;;;;;;4943302;29;20027;-84
2021/04/08 06:13:32;;;;;;;10.45;2.65;;;2.50;94.30;;;;;;4946299;28;20043;-85
2021/04/08 06:15:57;;;;;;;7.55;2.70;;;2.50;94.30;;;;;;4949555;28;20032;-85
2021/04/08 06:18:23;;;;;;;10.43;2.78;;;2.40;94.20;;;;;;4939185;29;20036;-85
2021/04/08 06:20:48;;;;;;;7.22;2.47;;;2.50;94.20;;;;;;4944445;28;20038;-85
2021/04/08 06:23:14;;;;;;;12.05;2.92;;;2.50;94.20;;;;;;4945683;28;20075;-85
2021/04/08 06:25:39;;;;;;;9.60;3.08;;;2.50;94.10;;;;;;4938212;29;20028;-85
2021/04/08 06:28:05;;;;;;;8.35;2.45;;;2.50;94.10;;;;;;4941945;28;20495;-85
2021/04/08 06:30:30;;;;;;;6.95;2.22;;;2.50;94.00;;;;;;4941705;28;20028;-85
2021/04/08 06:32:56;;;;;;;8.98;2.42;;;2.50;93.90;;;;;;4938529;28;20055;-84
2021/04/08 06:35:23;;;;;;;7.30;1.95;;;2.50;93.90;;;;;;4950990;28;20459;-84
2021/04/08 06:37:52;;;;;;;8.77;2.60;;;2.50;93.90;;;;;;4942860;28;20035;-84
2021/04/08 06:40:21;;;;;;;6.07;2.47;;;2.50;93.80;;;;;;4941508;29;20040;-84
2021/04/08 06:42:51;;;;;;;8.48;2.38;;;2.50;93.80;;;;;;4935732;29;20505;-84
2021/04/08 06:45:17;;;;;;;11.00;2.47;;;2.60;93.80;;;;;;4941920;29;20027;-84
2021/04/08 06:48:08;;;;;;;7.25;2.45;;;2.60;93.80;;;;;;4944581;28;20031;-83
2021/04/08 06:50:37;;;;;;;8.93;2.03;;;2.60;93.80;;;;;;4943050;29;20027;-83
2021/04/08 06:53:05;;;;;;;11.23;2.67;;;2.60;93.70;;;;;;4933953;29;20094;-84
2021/04/08 06:55:30;;;;;;;9.40;2.28;;;2.70;93.70;;;;;;4937317;28;20027;-83
2021/04/08 06:57:58;;;;;;;4.72;2.05;;;2.80;93.70;;;;;;4940424;28;20475;-83
2021/04/08 07:00:24;;;;;;;7.78;2.38;;;2.80;93.50;;;;;;4939622;29;20038;-84
2021/04/08 07:02:50;;;;;;;8.45;2.42;;;2.90;93.40;;;;;;4938893;29;20031;-83
2021/04/08 07:05:16;;;;;;;5.45;2.00;;;3.00;93.30;;;;;;4940901;29;20035;-83
2021/04/08 07:07:41;;;;;;;7.15;2.03;;;3.10;93.30;;;;;;4940442;29;20036;-83
2021/04/08 07:10:08;;;;;;;12.80;2.38;;;3.20;93.30;;;;;;4939961;29;20031;-83
2021/04/08 07:12:35;;;;;;;5.18;2.38;;;3.30;93.20;;;;;;4941708;29;20034;-83
2021/04/08 07:15:02;;;;;;;7.95;2.00;;;3.40;93.10;;;;;;4942394;28;20066;-83
2021/04/08 07:17:27;;;;;;;8.65;2.47;;;3.50;92.80;;;;;;4946487;29;20502;-83
2021/04/08 07:19:55;;;;;;;4.88;1.83;;;3.60;92.70;;;;;;4938940;28;20040;-83
2021/04/08 07:22:21;;;;;;;5.38;2.40;;;3.70;92.70;;;;;;4936431;29;20031;-82
2021/04/08 07:24:48;;;;;;;6.82;2.03;;;3.80;92.50;;;;;;4940768;28;20487;-83
2021/04/08 07:27:18;;;;;;;12.32;4.22;;;4.00;92.30;;;;;;4939061;29;20110;-82
2021/04/08 07:29:45;;;;;;;8.93;2.30;;;4.10;92.00;;;;;;4943640;28;20020;-82
2021/04/08 07:32:13;;;;;;;10.80;1.88;;;4.20;91.90;;;;;;4949225;28;20078;-82
2021/04/08 07:34:44;;;;;;;8.32;1.70;;;4.30;91.40;;;;;;4940038;28;20038;-83
2021/04/08 07:37:10;;;;;;;8.05;2.20;;;4.40;91.20;;;;;;4941758;28;20035;-83
2021/04/08 07:39:45;;;;;;;6.30;2.00;;;4.50;90.40;;;;;;4942933;29;20036;-82
2021/04/08 07:42:17;;;;;;;8.77;2.20;;;4.60;90.50;;;;;;4934910;28;20024;-83
2021/04/08 07:44:48;;;;;;;5.80;2.63;;;4.70;90.40;;;;;;4934672;29;20058;-83
2021/04/08 07:47:21;;;;;;;6.95;1.80;;;4.80;90.10;;;;;;4940750;29;20043;-83
2021/04/08 07:49:49;;;;;;;5.65;1.60;;;4.90;88.80;;;;;;4937860;29;20065;-82
2021/04/08 07:52:29;;;;;;;4.05;1.60;;;5.00;88.20;;;;;;4937777;28;20028;-83
2021/04/08 07:54:59;;;;;;;7.85;1.75;;;5.10;87.40;;;;;;4936798;29;20024;-83
2021/04/08 07:57:25;;;;;;;6.07;1.88;;;5.20;86.60;;;;;;4938491;28;20461;-82
2021/04/08 07:59:50;;;;;;;4.65;1.20;;;5.30;85.20;;;;;;4957763;28;20126;-83
2021/04/08 08:02:21;;;;;;;7.32;1.60;;;5.30;84.60;;;;;;4939788;28;20074;-84
2021/04/08 08:04:46;;;;;;;10.25;2.17;;;5.40;84.50;;;;;;4943351;28;20031;-82
2021/04/08 08:07:26;;;;;;;12.38;2.22;;;5.50;83.60;;;;;;4946219;29;20438;-82
2021/04/08 08:09:52;;;;;;;6.97;1.45;;;5.60;83.50;;;;;;4953418;29;20085;-82
2021/04/08 08:12:18;;;;;;;8.68;1.20;;;5.70;83.60;;;;;;4952267;28;20031;-82
2021/04/08 08:14:44;;;;;;;7.35;2.15;;;5.80;81.80;;;;;;4947856;28;20043;-83
2021/04/08 08:17:12;;;;;;;6.30;1.30;;;5.90;80.60;;;;;;4936598;29;20437;-83
2021/04/08 08:19:42;;;;;;;6.10;1.85;;;6.10;80.30;;;;;;4937008;28;20043;-83
2021/04/08 08:22:16;;;;;;;5.63;1.20;;;6.40;78.00;;;;;;4932422;29;20450;-82
2021/04/08 08:24:55;;;;;;;3.90;1.20;;;6.50;77.60;;;;;;4935438;28;20490;-82
2021/04/08 08:27:37;;;;;;;5.20;1.48;;;6.80;76.90;;;;;;4936148;29;20027;-82
2021/04/08 08:30:03;;;;;;;9.02;1.55;;;7.00;75.60;;;;;;4937393;28;20031;-82
2021/04/08 08:32:28;;;;;;;2.85;0.80;;;7.00;70.80;;;;;;4931979;29;20047;-83
2021/04/08 08:34:54;;;;;;;6.68;1.23;;;7.00;70.00;;;;;;4939497;28;20034;-82
2021/04/08 08:37:20;;;;;;;6.00;1.55;;;7.00;71.40;;;;;;4952034;29;20027;-83
2021/04/08 08:39:48;;;;;;;5.35;1.13;;;7.00;71.70;;;;;;4951197;28;20043;-82
2021/04/08 08:42:19;;;;;;;7.18;2.00;;;7.00;69.60;;;;;;4951272;29;20028;-83
2021/04/08 08:44:45;;;;;;;6.47;1.20;;;7.00;68.20;;;;;;4951103;28;20028;-82
2021/04/08 08:47:22;;;;;;;5.97;1.05;;;7.00;69.00;;;;;;4955421;28;20058;-82
2021/04/08 08:49:55;;;;;;;4.03;1.35;;;7.00;69.50;;;;;;4932078;29;20038;-82
2021/04/08 08:52:25;;;;;;;9.05;1.60;;;7.10;68.80;;;;;;4951179;29;20054;-83
2021/04/08 08:54:52;;;;;;;7.60;1.80;;;7.10;67.10;;;;;;4954763;28;20058;-83
2021/04/08 08:57:19;;;;;;;8.02;1.95;;;7.10;67.10;;;;;;4953367;28;20028;-83
2021/04/08 08:59:47;;;;;;;7.68;1.67;;;7.10;67.00;;;;;;4943948;29;20088;-83
2021/04/08 09:02:12;;;;;;;5.18;1.83;;;7.10;66.00;;;;;;4935902;29;20028;-83
2021/04/08 09:04:38;;;;;;;6.88;1.80;;;7.20;66.30;;;;;;4947086;28;20398;-82
2021/04/08 09:07:06;;;;;;;6.57;1.50;;;7.30;66.60;;;;;;4939772;28;20027;-83
2021/04/08 09:09:36;;;;;;;6.07;1.50;;;7.40;66.30;;;;;;4940892;29;20504;-83
2021/04/08 09:12:06;;;;;;;6.13;2.40;;;7.50;65.60;;;;;;4952300;29;20111;-82
2021/04/08 09:14:33;;;;;;;5.13;1.90;;;7.60;65.60;;;;;;4954637;28;20024;-83
2021/04/08 09:16:59;;;;;;;3.50;1.90;;;7.60;64.80;;;;;;4957037;28;20023;-82
2021/04/08 09:19:28;;;;;;;5.07;2.45;;;7.70;64.70;;;;;;4951205;29;20507;-83
2021/04/08 09:22:14;;;;;;;7.25;2.47;;;7.70;63.80;;;;;;4941308;29;20024;-82
2021/04/08 09:24:46;;;;;;;5.63;2.25;;;7.80;62.70;;;;;;4940107;28;20046;-83
2021/04/08 09:27:11;;;;;;;5.45;1.90;;;7.80;63.20;;;;;;4940485;28;20514;-83
2021/04/08 09:29:38;;;;;;;10.23;2.38;;;7.90;61.00;;;;;;4941413;29;20040;-82
2021/04/08 09:32:19;;;;;;;9.05;2.17;;;7.90;60.20;;;;;;4952326;28;20031;-83
2021/04/08 09:35:07;;;;;;;8.40;2.50;;;8.00;59.50;;;;;;4946022;28;20402;-83
2021/04/08 09:37:47;;;;;;;6.38;2.30;;;8.00;59.70;;;;;;4958337;28;20383;-83
2021/04/08 09:40:38;;;;;;;4.05;1.92;;;8.20;60.70;;;;;;4951011;29;20486;-83
2021/04/08 09:43:09;;;;;;;3.85;2.03;;;8.20;59.20;;;;;;4952182;28;20093;-83
2021/04/08 09:45:41;;;;;;;5.00;2.40;;;8.30;58.80;;;;;;4951582;28;20027;-83
2021/04/08 09:48:20;;;;;;;4.22;1.90;;;8.40;57.90;;;;;;4955569;29;20114;-83
2021/04/08 09:50:59;;;;;;;3.65;2.22;;;8.40;57.40;;;;;;4951200;28;20040;-83
2021/04/08 09:53:27;;;;;;;4.78;2.10;;;8.40;56.50;;;;;;4950465;28;20048;-83
2021/04/08 09:55:56;;;;;;;4.82;1.77;;;8.40;55.30;;;;;;4943158;28;20027;-82
2021/04/08 09:58:30;;;;;;;4.25;2.05;;;8.40;53.80;;;;;;4936583;29;20040;-83
2021/04/08 10:00:58;;;;;;;4.85;2.60;;;8.30;54.10;;;;;;4955446;29;20037;-83
2021/04/08 10:03:37;;;;;;;6.72;2.53;;;8.30;54.50;;;;;;4952309;29;20089;-83
2021/04/08 10:06:16;;;;;;;4.15;2.13;;;8.40;54.20;;;;;;4951580;28;20495;-83
2021/04/08 10:08:43;;;;;;;5.00;2.20;;;8.40;52.60;;;;;;4938926;29;20019;-83
2021/04/08 10:11:08;;;;;;;5.43;2.30;;;8.30;52.10;;;;;;4935826;29;20032;-84
2021/04/08 10:13:35;;;;;;;2.92;1.70;;;8.40;53.30;;;;;;4948440;28;20028;-84
2021/04/08 10:16:09;;;;;;;7.85;2.38;;;8.50;54.00;;;;;;4941350;28;20035;-84
2021/04/08 10:18:35;;;;;;;4.05;1.98;;;8.70;52.40;;;;;;4945034;28;20042;-84
2021/04/08 10:21:03;;;;;;;6.18;2.67;;;8.60;51.70;;;;;;4953736;29;20077;-84
2021/04/08 10:23:40;;;;;;;4.63;2.33;;;8.60;52.50;;;;;;4939421;28;20484;-82
2021/04/08 10:26:11;;;;;;;3.88;2.10;;;8.60;51.30;;;;;;4946493;29;20037;-84
2021/04/08 10:28:44;;;;;;;4.50;1.88;;;8.50;52.50;;;;;;4951190;29;20066;-83
2021/04/08 10:31:24;;;;;;;7.25;2.40;;;8.50;52.30;;;;;;4946983;29;20390;-83
2021/04/08 10:34:05;;;;;;;6.55;2.58;;;8.50;52.30;;;;;;4967062;28;20127;-84
2021/04/08 10:36:34;;;;;;;3.28;1.63;;;8.60;53.30;;;;;;4945555;29;20031;-83
2021/04/08 10:39:10;;;;;;;4.88;2.13;;;8.80;54.40;;;;;;4950033;28;20032;-83
2021/04/08 10:41:38;;;;;;;8.60;3.35;;;8.90;51.90;;;;;;4955272;29;20051;-83
2021/04/08 10:44:24;;;;;;;3.85;2.00;;;8.90;53.30;;;;;;4942367;29;20043;-83
2021/04/08 10:46:54;;;;;;;7.35;2.58;;;9.10;52.90;;;;;;4954730;29;20047;-84
2021/04/08 10:49:27;;;;;;;5.75;2.38;;;9.10;52.80;;;;;;4954443;29;20480;-83
2021/04/08 10:51:53;;;;;;;7.25;2.72;;;9.10;52.70;;;;;;4953930;29;20425;-83
2021/04/08 10:54:19;;;;;;;6.80;2.25;;;9.10;51.50;;;;;;4953692;29;20382;-83
2021/04/08 10:56:49;;;;;;;5.75;3.15;;;9.00;51.60;;;;;;4953582;29;20027;-83
2021/04/08 10:59:19;;;;;;;6.15;2.70;;;9.00;51.10;;;;;;4936916;28;20047;-83
2021/04/08 11:01:46;;;;;;;6.63;2.88;;;9.00;51.40;;;;;;4947112;29;20470;-84
2021/04/08 11:04:12;;;;;;;6.07;3.10;;;9.00;51.10;;;;;;4954254;29;20259;-83
2021/04/08 11:06:37;;;;;;;9.20;3.38;;;8.90;51.00;;;;;;4954971;29;20506;-83
2021/04/08 11:09:04;;;;;;;5.07;2.42;;;8.90;50.90;;;;;;4946109;29;20042;-84
2021/04/08 11:11:30;;;;;;;7.25;3.40;;;9.00;51.20;;;;;;4936300;29;20415;-83
2021/04/08 11:13:55;;;;;;;8.52;2.70;;;9.00;51.40;;;;;;4936104;28;20027;-83
2021/04/08 11:16:21;;;;;;;11.52;3.47;;;9.10;51.60;;;;;;4951384;28;20538;-83
2021/04/08 11:18:48;;;;;;;7.22;3.28;;;9.10;50.70;;;;;;4954436;28;20109;-84
2021/04/08 11:21:13;;;;;;;6.40;3.10;;;9.10;50.60;;;;;;4943441;28;20032;-83
2021/04/08 11:23:39;;;;;;;5.82;3.65;;;9.10;51.00;;;;;;4955481;28;20031;-84
2021/04/08 11:26:09;;;;;;;6.35;3.67;;;9.10;51.70;;;;;;4945799;28;20032;-83
2021/04/08 11:28:41;;;;;;;7.55;3.85;;;9.20;51.50;;;;;;4941961;29;20031;-85
2021/04/08 11:31:26;;;;;;;7.88;3.90;;;9.30;51.60;;;;;;4943987;28;20209;-83
2021/04/08 11:33:59;;;;;;;6.28;4.05;;;9.40;51.60;;;;;;4938004;29;20040;-85
2021/04/08 11:36:26;;;;;;;9.07;3.95;;;9.50;51.40;;;;;;4951217;28;20123;-83
2021/04/08 11:38:55;;;;;;;7.03;3.90;;;9.50;50.60;;;;;;4955813;28;20034;-84
2021/04/08 11:41:26;;;;;;;8.38;4.15;;;9.60;50.40;;;;;;4936290;28;20066;-84
2021/04/08 11:43:52;;;;;;;8.55;3.90;;;9.50;49.80;;;;;;4946749;29;20576;-84
2021/04/08 11:46:35;;;;;;;11.63;4.30;;;9.40;50.70;;;;;;4952895;28;20032;-84
2021/04/08 11:49:01;;;;;;;6.15;4.18;;;9.40;50.80;;;;;;4943819;29;20030;-85
2021/04/08 11:51:31;;;;;;;4.95;3.28;;;9.40;50.40;;;;;;4937672;29;20510;-82
2021/04/08 11:54:16;;;;;;;6.28;4.13;;;9.40;50.00;;;;;;4953167;29;20058;-84
2021/04/08 11:56:43;;;;;;;8.07;4.38;;;9.50;51.00;;;;;;4936194;29;20387;-84
2021/04/08 11:59:11;;;;;;;8.25;4.00;;;9.50;50.30;;;;;;4948309;28;20035;-84
2021/04/08 12:01:40;;;;;;;6.72;3.70;;;9.40;51.40;;;;;;4982114;28;20028;-83
2021/04/08 12:04:21;;;;;;;9.18;3.67;;;9.40;50.70;;;;;;4956972;28;20031;-84
2021/04/08 12:06:59;;;;;;;8.70;4.05;;;9.30;50.20;;;;;;4970206;28;20024;-83
2021/04/08 12:09:36;;;;;;;9.13;4.32;;;9.30;50.80;;;;;;4951868;29;20100;-83
2021/04/08 12:12:02;;;;;;;11.23;5.03;;;9.20;50.80;;;;;;4938143;29;20024;-83
2021/04/08 12:14:28;;;;;;;8.25;4.00;;;9.10;50.20;;;;;;4947815;28;20050;-84
2021/04/08 12:17:06;;;;;;;10.98;5.18;;;9.10;50.80;;;;;;4948085;28;20032;-83
2021/04/08 12:19:32;;;;;;;9.80;5.13;;;9.10;51.10;;;;;;4943688;29;20043;-84
2021/04/08 12:22:07;;;;;;;5.90;4.50;;;9.10;50.50;;;;;;4945368;29;20118;-83
2021/04/08 12:24:33;;;;;;;9.80;5.03;;;9.10;50.60;;;;;;4933425;29;20085;-83
2021/04/08 12:26:58;;;;;;;9.95;4.80;;;9.00;50.80;;;;;;4932761;28;20453;-83
2021/04/08 12:29:24;;;;;;;8.32;4.97;;;9.10;51.30;;;;;;4932612;28;20606;-83
2021/04/08 12:31:53;;;;;;;7.75;4.82;;;9.10;51.10;;;;;;4945564;29;20046;-83
2021/04/08 12:34:20;;;;;;;7.03;4.70;;;9.10;51.10;;;;;;4949645;28;20040;-83
2021/04/08 12:36:47;;;;;;;7.15;4.70;;;9.00;50.40;;;;;;4932261;29;20031;-83
2021/04/08 12:39:12;;;;;;;11.75;5.20;;;9.10;51.20;;;;;;4933315;29;20038;-83
2021/04/08 12:41:38;;;;;;;7.65;4.65;;;9.20;50.40;;;;;;4935897;28;20028;-83
2021/04/08 12:44:05;;;;;;;10.07;5.68;;;9.20;50.60;;;;;;4948218;29;20036;-83
2021/04/08 12:46:30;;;;;;;6.13;4.95;;;9.20;51.10;;;;;;4943889;28;20023;-84
2021/04/08 12:48:56;;;;;;;9.23;4.80;;;9.20;51.10;;;;;;4945601;29;20434;-83
2021/04/08 12:51:21;;;;;;;8.27;5.22;;;9.30;50.60;;;;;;4954329;29;20023;-83
2021/04/08 12:53:47;;;;;;;11.20;5.60;;;9.40;50.50;;;;;;4945123;28;20032;-83
2021/04/08 12:56:14;;;;;;;10.85;5.13;;;9.40;50.30;;;;;;4940929;29;20038;-85
2021/04/08 12:58:39;;;;;;;9.45;5.03;;;9.30;50.50;;;;;;4942246;29;20500;-85
2021/04/08 13:01:05;;;;;;;12.63;5.05;;;9.40;50.50;;;;;;4936960;28;20038;-84
2021/04/08 13:03:30;;;;;;;8.10;5.18;;;9.30;50.60;;;;;;4936758;29;20020;-84